createdAt,value
2022-08-23T00:02:01.390Z,8.18
2022-08-23T00:05:09.197Z,13.48
2022-08-23T00:08:13.239Z,9.90
2022-08-23T00:11:33.663Z,9.15
2022-08-23T00:14:40.449Z,9.77
2022-08-23T00:17:46.231Z,6.50
2022-08-23T00:20:49.692Z,8.85
2022-08-23T00:23:52.778Z,8.10
2022-08-23T00:27:07.657Z,9.88
2022-08-23T00:30:13.282Z,9.32
2022-08-23T00:33:17.636Z,11.73
2022-08-23T00:36:20.678Z,12.50
2022-08-23T00:39:24.197Z,7.93
2022-08-23T00:42:53.905Z,8.88
2022-08-23T00:46:22.657Z,7.93
2022-08-23T00:49:26.118Z,7.30
2022-08-23T00:52:35.193Z,8.07
2022-08-23T00:55:39.126Z,11.60
2022-08-23T00:58:43.744Z,10.30
2022-08-23T01:01:46.981Z,9.13
2022-08-23T01:04:55.643Z,8.70
2022-08-23T01:08:01.055Z,8.35
2022-08-23T01:11:11.668Z,8.90
2022-08-23T01:14:26.855Z,9.68
2022-08-23T01:17:37.326Z,11.95
2022-08-23T01:20:47.756Z,8.73
2022-08-23T01:23:56.901Z,8.48
2022-08-23T01:27:00.495Z,12.90
2022-08-23T01:30:06.018Z,9.25
2022-08-23T01:33:11.233Z,11.23
2022-08-23T01:36:18.518Z,8.95
2022-08-23T01:39:25.950Z,8.73
2022-08-23T01:42:29.235Z,7.20
2022-08-23T01:45:33.099Z,7.28
2022-08-23T01:48:36.583Z,8.50
2022-08-23T01:51:40.889Z,6.57
2022-08-23T01:54:46.534Z,10.43
2022-08-23T01:57:54.128Z,11.77
2022-08-23T02:00:57.577Z,7.38
2022-08-23T02:04:04.764Z,7.72
2022-08-23T02:07:08.314Z,7.85
2022-08-23T02:10:12.779Z,6.97
2022-08-23T02:13:16.338Z,8.45
2022-08-23T02:16:26.084Z,9.57
2022-08-23T02:19:32.781Z,8.77
2022-08-23T02:22:39.626Z,11.15
2022-08-23T02:25:44.545Z,8.82
2022-08-23T02:28:51.694Z,11.40
2022-08-23T02:32:00.010Z,10.35
2022-08-23T02:35:05.587Z,8.15
2022-08-23T02:38:13.461Z,7.60
2022-08-23T02:41:18.473Z,11.13
2022-08-23T02:44:22.546Z,7.82
2022-08-23T02:47:26.021Z,7.13
2022-08-23T02:50:42.958Z,10.07
2022-08-23T02:53:48.605Z,11.75
2022-08-23T02:56:54.333Z,9.77
2022-08-23T02:59:58.009Z,7.15
2022-08-23T03:03:01.278Z,7.03
2022-08-23T03:06:25.623Z,7.97
2022-08-23T03:09:27.523Z,8.75
2022-08-23T03:12:33.689Z,10.40
2022-08-23T03:15:37.144Z,10.55
2022-08-23T03:18:41.160Z,8.75
2022-08-23T03:21:44.251Z,12.82
2022-08-23T03:24:48.494Z,9.18
2022-08-23T03:27:55.162Z,8.02
2022-08-23T03:30:58.815Z,10.65
2022-08-23T03:34:01.804Z,9.52
2022-08-23T03:37:06.509Z,9.63
2022-08-23T03:40:11.962Z,9.98
2022-08-23T03:43:16.629Z,8.25
2022-08-23T03:46:23.891Z,11.80
2022-08-23T03:49:31.969Z,10.95
2022-08-23T03:52:35.060Z,10.63
2022-08-23T03:55:42.358Z,12.02
2022-08-23T03:58:51.073Z,11.65
2022-08-23T04:01:55.132Z,9.38
2022-08-23T04:04:58.517Z,10.93
2022-08-23T04:08:33.289Z,15.30
2022-08-23T04:11:37.084Z,13.02
2022-08-23T04:14:45.537Z,11.20
2022-08-23T04:17:48.692Z,13.65
2022-08-23T04:20:53.041Z,12.68
2022-08-23T04:23:58.872Z,13.55
2022-08-23T04:27:02.195Z,9.48
2022-08-23T04:30:08.475Z,15.25
2022-08-23T04:33:15.152Z,23.75
2022-08-23T04:36:21.052Z,16.55
2022-08-23T04:39:26.881Z,13.73
2022-08-23T04:42:32.211Z,13.95
2022-08-23T04:45:39.444Z,13.82
2022-08-23T04:48:45.158Z,26.02
2022-08-23T04:51:53.507Z,14.18
2022-08-23T04:54:57.581Z,16.88
2022-08-23T04:58:18.257Z,15.43
2022-08-23T05:01:24.676Z,22.80
2022-08-23T05:04:29.382Z,17.48
2022-08-23T05:07:42.678Z,10.88
2022-08-23T05:10:47.168Z,12.55
2022-08-23T05:13:51.450Z,11.57
2022-08-23T05:16:57.430Z,9.95
2022-08-23T05:20:01.608Z,14.50
2022-08-23T05:23:05.699Z,11.57
2022-08-23T05:26:12.642Z,9.98
2022-08-23T05:29:18.588Z,10.65
2022-08-23T05:32:30.410Z,10.75
2022-08-23T05:35:36.252Z,12.88
2022-08-23T05:38:40.612Z,11.13
2022-08-23T05:41:45.446Z,10.70
2022-08-23T05:44:48.502Z,13.25
2022-08-23T05:47:55.739Z,8.57
2022-08-23T05:51:15.455Z,12.73
2022-08-23T05:54:18.576Z,10.63
2022-08-23T05:57:27.010Z,11.20
2022-08-23T06:00:37.403Z,10.43
2022-08-23T06:03:45.073Z,9.68
2022-08-23T06:06:48.503Z,8.77
2022-08-23T06:09:51.645Z,10.02
2022-08-23T06:12:54.706Z,17.60
2022-08-23T06:15:58.613Z,10.38
2022-08-23T06:19:05.151Z,13.50
2022-08-23T06:22:23.387Z,14.65
2022-08-23T06:25:26.790Z,11.20
2022-08-23T06:28:36.531Z,12.43
2022-08-23T06:31:55.863Z,10.80
2022-08-23T06:35:33.314Z,12.85
2022-08-23T06:38:47.363Z,9.77
2022-08-23T06:42:37.696Z,10.77
2022-08-23T06:45:39.890Z,8.75
2022-08-23T06:48:45.671Z,9.93
2022-08-23T06:51:53.280Z,8.35
2022-08-23T06:55:08.601Z,10.90
2022-08-23T06:58:28.380Z,11.95
2022-08-23T07:01:47.575Z,12.10
2022-08-23T07:04:55.645Z,13.00
2022-08-23T07:08:21.774Z,9.00
2022-08-23T07:11:25.347Z,9.38
2022-08-23T07:14:29.642Z,11.57
2022-08-23T07:17:32.623Z,11.48
2022-08-23T07:20:35.791Z,12.40
2022-08-23T07:23:46.420Z,10.55
2022-08-23T07:26:52.046Z,10.50
2022-08-23T07:29:55.310Z,11.70
2022-08-23T07:32:58.888Z,13.73
2022-08-23T07:36:08.791Z,8.75
2022-08-23T07:39:15.528Z,8.90
2022-08-23T07:42:23.559Z,10.77
2022-08-23T07:45:29.310Z,12.07
2022-08-23T07:48:53.456Z,11.52
2022-08-23T07:52:01.273Z,8.32
2022-08-23T07:55:06.991Z,13.35
2022-08-23T07:58:28.604Z,9.15
2022-08-23T08:01:46.691Z,9.65
2022-08-23T08:04:49.946Z,12.07
2022-08-23T08:07:53.478Z,14.35
2022-08-23T08:10:58.787Z,11.45
2022-08-23T08:14:05.413Z,8.82
2022-08-23T08:17:09.377Z,10.02
2022-08-23T08:20:35.187Z,10.02
2022-08-23T08:23:58.681Z,8.85
2022-08-23T08:27:12.920Z,9.10
2022-08-23T08:30:16.074Z,11.27
2022-08-23T08:33:19.776Z,8.70
2022-08-23T08:36:38.001Z,5.85
2022-08-23T08:39:46.277Z,9.05
2022-08-23T08:43:11.411Z,7.03
2022-08-23T08:46:22.982Z,13.10
2022-08-23T08:49:38.227Z,9.65
2022-08-23T08:52:46.634Z,8.70
2022-08-23T08:56:02.987Z,8.80
2022-08-23T08:59:17.002Z,12.30
2022-08-23T09:02:33.238Z,6.82
2022-08-23T09:05:48.487Z,7.85
2022-08-23T09:09:08.798Z,13.35
2022-08-23T09:12:37.660Z,12.30
2022-08-23T09:15:49.594Z,11.15
2022-08-23T09:18:54.604Z,6.72
2022-08-23T09:22:01.862Z,8.07
2022-08-23T09:25:10.815Z,10.80
2022-08-23T09:28:24.923Z,9.57
2022-08-23T09:31:44.110Z,5.20
2022-08-23T09:34:50.090Z,6.90
2022-08-23T09:38:00.236Z,6.10
2022-08-23T09:41:19.166Z,9.27
2022-08-23T09:44:39.278Z,9.77
2022-08-23T09:47:46.917Z,6.93
2022-08-23T09:50:55.260Z,6.05
2022-08-23T09:54:11.574Z,4.68
2022-08-23T09:57:24.377Z,8.35
2022-08-23T10:00:32.480Z,6.22
2022-08-23T10:03:37.114Z,11.52
2022-08-23T10:06:53.016Z,7.30
2022-08-23T10:10:23.272Z,5.63
2022-08-23T10:13:27.731Z,8.05
2022-08-23T10:16:42.047Z,12.98
2022-08-23T10:19:55.833Z,9.48
2022-08-23T10:23:15.431Z,7.68
2022-08-23T10:26:29.057Z,7.53
2022-08-23T10:29:41.061Z,7.45
2022-08-23T10:33:07.247Z,7.80
2022-08-23T10:36:24.519Z,8.00
2022-08-23T10:39:30.851Z,7.68
2022-08-23T10:42:44.647Z,9.93
2022-08-23T10:45:50.157Z,6.75
2022-08-23T10:49:04.132Z,8.77
2022-08-23T10:52:15.086Z,7.03
2022-08-23T10:55:36.825Z,10.75
2022-08-23T10:58:47.677Z,7.30
2022-08-23T11:02:00.856Z,9.90
2022-08-23T11:05:23.955Z,6.45
2022-08-23T11:08:47.485Z,10.10
2022-08-23T11:12:20.166Z,7.18
2022-08-23T11:15:44.542Z,5.75
2022-08-23T11:18:51.211Z,7.75
2022-08-23T11:22:16.175Z,5.40
2022-08-23T11:25:43.752Z,6.88
2022-08-23T11:28:48.013Z,8.38
2022-08-23T11:32:03.279Z,9.50
2022-08-23T11:35:30.664Z,5.82
2022-08-23T11:39:09.475Z,6.15
2022-08-23T11:42:20.344Z,7.55
2022-08-23T11:45:33.331Z,8.30
2022-08-23T11:48:43.383Z,5.53
2022-08-23T11:51:57.876Z,9.13
2022-08-23T11:55:26.174Z,7.40
2022-08-23T11:58:53.731Z,6.53
2022-08-23T12:02:00.430Z,6.80
2022-08-23T12:05:21.363Z,6.43
2022-08-23T12:08:55.745Z,7.00
2022-08-23T12:12:28.649Z,11.32
2022-08-23T12:19:06.874Z,6.20
2022-08-23T12:22:16.421Z,7.63
2022-08-23T12:25:22.094Z,5.10
2022-08-23T12:28:39.409Z,4.63
2022-08-23T12:31:53.239Z,4.93
2022-08-23T12:35:18.901Z,6.07
2022-08-23T12:38:36.408Z,6.15
2022-08-23T12:41:56.294Z,3.47
2022-08-23T12:45:05.672Z,8.57
2022-08-23T12:48:12.467Z,4.97
2022-08-23T12:51:17.255Z,3.88
2022-08-23T12:54:25.069Z,3.47
2022-08-23T12:57:35.979Z,5.07
2022-08-23T13:00:43.629Z,3.92
2022-08-23T13:03:54.148Z,7.97
2022-08-23T13:07:04.704Z,5.82
2022-08-23T13:10:09.797Z,5.25
2022-08-23T13:13:16.031Z,3.17
2022-08-23T13:16:30.500Z,7.57
2022-08-23T13:19:33.963Z,4.93
2022-08-23T13:22:40.615Z,3.80
2022-08-23T13:25:44.107Z,4.07
2022-08-23T13:29:03.847Z,9.82
2022-08-23T13:32:06.994Z,6.40
2022-08-23T13:35:34.120Z,4.97
2022-08-23T13:38:38.965Z,4.25
2022-08-23T13:41:45.111Z,3.40
2022-08-23T13:44:48.895Z,3.78
2022-08-23T13:47:58.250Z,8.90
2022-08-23T13:51:24.597Z,4.95
2022-08-23T13:54:31.547Z,6.65
2022-08-23T13:57:37.155Z,6.10
2022-08-23T14:00:45.819Z,8.10
2022-08-23T14:03:59.060Z,4.68
2022-08-23T14:07:02.931Z,5.35
2022-08-23T14:10:10.157Z,4.13
2022-08-23T14:13:15.331Z,6.28
2022-08-23T14:16:33.491Z,9.95
2022-08-23T14:23:08.702Z,5.60
2022-08-23T14:26:21.870Z,3.88
2022-08-23T14:29:29.100Z,7.55
2022-08-23T14:32:33.281Z,4.55
2022-08-23T14:35:37.599Z,7.93
2022-08-23T14:38:43.094Z,7.28
2022-08-23T14:41:52.139Z,5.68
2022-08-23T14:44:55.677Z,5.10
2022-08-23T14:47:58.977Z,6.43
2022-08-23T14:51:02.793Z,5.38
2022-08-23T14:54:08.839Z,8.07
2022-08-23T14:57:13.597Z,6.88
2022-08-23T15:00:18.032Z,5.28
2022-08-23T15:03:26.271Z,5.75
2022-08-23T15:07:06.990Z,8.57
2022-08-23T15:10:11.005Z,3.85
2022-08-23T15:13:22.924Z,7.93
2022-08-23T15:16:33.496Z,4.20
2022-08-23T15:19:37.113Z,4.20
2022-08-23T15:22:55.326Z,7.18
2022-08-23T15:26:00.152Z,5.13
2022-08-23T15:29:05.608Z,8.57
2022-08-23T15:32:10.525Z,4.57
2022-08-23T15:35:16.227Z,4.32
2022-08-23T15:38:23.006Z,4.18
2022-08-23T15:41:28.209Z,5.90
2022-08-23T15:44:33.482Z,4.45
2022-08-23T15:47:48.162Z,3.75
2022-08-23T15:50:52.562Z,4.35
2022-08-23T15:53:57.922Z,4.43
2022-08-23T15:57:01.835Z,3.67
2022-08-23T16:00:10.655Z,3.92
2022-08-23T16:03:19.016Z,4.55
2022-08-23T16:06:24.941Z,6.78
2022-08-23T16:09:29.383Z,7.57
2022-08-23T16:12:34.087Z,3.85
2022-08-23T16:15:40.754Z,4.97
2022-08-23T16:18:44.259Z,7.00
2022-08-23T16:21:47.716Z,6.47
2022-08-23T16:24:50.856Z,5.28
2022-08-23T16:27:54.051Z,6.03
2022-08-23T16:30:58.412Z,3.45
2022-08-23T16:34:03.880Z,6.53
2022-08-23T16:37:09.623Z,3.92
2022-08-23T16:40:13.427Z,5.60
2022-08-23T16:43:16.490Z,5.43
2022-08-23T16:46:23.065Z,6.28
2022-08-23T16:49:26.154Z,6.07
2022-08-23T16:52:34.676Z,6.45
2022-08-23T16:55:39.554Z,4.25
2022-08-23T16:58:43.333Z,5.28
2022-08-23T17:01:51.561Z,4.60
2022-08-23T17:04:54.703Z,4.85
2022-08-23T17:07:58.903Z,6.03
2022-08-23T17:11:03.290Z,4.13
2022-08-23T17:14:06.762Z,3.78
2022-08-23T17:17:11.505Z,8.85
2022-08-23T17:20:20.142Z,6.13
2022-08-23T17:23:23.591Z,4.97
2022-08-23T17:26:26.723Z,5.18
2022-08-23T17:29:34.535Z,6.43
2022-08-23T17:32:43.146Z,6.40
2022-08-23T17:35:46.431Z,9.18
2022-08-23T17:38:49.426Z,6.07
2022-08-23T17:41:52.558Z,7.55
2022-08-23T17:44:55.546Z,4.45
2022-08-23T17:48:00.201Z,5.82
2022-08-23T17:51:03.858Z,6.47
2022-08-23T17:54:08.077Z,6.05
2022-08-23T17:57:13.937Z,7.55
2022-08-23T18:00:50.150Z,4.43
2022-08-23T18:04:00.355Z,6.05
2022-08-23T18:07:50.566Z,6.43
2022-08-23T18:11:45.467Z,7.70
2022-08-23T18:15:12.338Z,8.27
2022-08-23T18:18:52.027Z,6.30
2022-08-23T18:22:10.105Z,7.95
2022-08-23T18:25:16.894Z,6.68
2022-08-23T18:28:20.739Z,6.53
2022-08-23T18:31:23.837Z,8.30
2022-08-23T18:34:27.767Z,7.22
2022-08-23T18:37:32.392Z,8.75
2022-08-23T18:40:45.150Z,6.63
2022-08-23T18:43:49.100Z,7.90
2022-08-23T18:46:52.579Z,7.88
2022-08-23T18:49:55.699Z,5.57
2022-08-23T18:53:01.202Z,5.78
2022-08-23T18:56:05.311Z,4.85
2022-08-23T18:59:08.288Z,7.72
2022-08-23T19:02:11.389Z,6.70
2022-08-23T19:05:14.694Z,9.90
2022-08-23T19:08:19.369Z,7.15
2022-08-23T19:11:24.437Z,8.23
2022-08-23T19:14:28.162Z,8.90
2022-08-23T19:17:31.153Z,6.65
2022-08-23T19:20:35.331Z,9.40
2022-08-23T19:23:39.644Z,5.80
2022-08-23T19:26:47.233Z,7.07
2022-08-23T19:29:50.885Z,6.13
2022-08-23T19:32:54.920Z,7.90
2022-08-23T19:35:58.636Z,6.63
2022-08-23T19:39:03.446Z,6.00
2022-08-23T19:42:11.579Z,7.45
2022-08-23T19:45:16.129Z,7.97
2022-08-23T19:48:20.258Z,7.32
2022-08-23T19:51:24.662Z,10.85
2022-08-23T19:54:29.497Z,9.73
2022-08-23T19:57:33.941Z,6.10
2022-08-23T20:00:38.292Z,6.60
2022-08-23T20:03:41.854Z,6.75
2022-08-23T20:06:44.875Z,14.75
2022-08-23T20:09:49.214Z,10.25
2022-08-23T20:12:52.196Z,7.65
2022-08-23T20:15:56.409Z,11.48
2022-08-23T20:19:01.246Z,7.25
2022-08-23T20:22:23.620Z,7.35
2022-08-23T20:25:29.126Z,6.10
2022-08-23T20:28:32.301Z,7.72
2022-08-23T20:31:39.261Z,4.72
2022-08-23T20:34:42.655Z,6.65
2022-08-23T20:37:45.726Z,6.60
2022-08-23T20:40:50.065Z,8.30
2022-08-23T20:43:57.091Z,9.82
2022-08-23T20:47:03.085Z,9.63
2022-08-23T20:50:07.675Z,8.35
2022-08-23T20:53:12.731Z,9.23
2022-08-23T20:56:17.730Z,7.63
2022-08-23T20:59:23.526Z,8.98
2022-08-23T21:02:27.013Z,6.20
2022-08-23T21:05:30.015Z,5.68
2022-08-23T21:08:33.317Z,6.72
2022-08-23T21:11:40.263Z,7.80
2022-08-23T21:14:43.361Z,9.10
2022-08-23T21:17:47.804Z,9.02
2022-08-23T21:20:51.261Z,6.53
2022-08-23T21:23:55.303Z,7.60
2022-08-23T21:26:59.781Z,4.90
2022-08-23T21:30:03.238Z,13.45
2022-08-23T21:33:07.760Z,5.72
2022-08-23T21:36:12.284Z,7.10
2022-08-23T21:39:15.290Z,6.75
2022-08-23T21:42:23.650Z,14.32
2022-08-23T21:45:27.571Z,6.80
2022-08-23T21:48:31.868Z,7.32
2022-08-23T21:51:38.298Z,7.32
2022-08-23T21:54:43.607Z,6.25
2022-08-23T21:57:48.534Z,4.45
2022-08-23T22:00:51.841Z,4.95
2022-08-23T22:03:57.108Z,5.60
2022-08-23T22:07:00.986Z,8.73
2022-08-23T22:10:07.358Z,5.10
2022-08-23T22:13:11.661Z,8.70
2022-08-23T22:16:14.785Z,5.60
2022-08-23T22:19:19.739Z,11.27
2022-08-23T22:22:24.961Z,6.07
2022-08-23T22:25:28.323Z,8.90
2022-08-23T22:28:34.126Z,8.07
2022-08-23T22:31:39.385Z,6.40
2022-08-23T22:34:42.431Z,9.73
2022-08-23T22:38:03.682Z,10.23
2022-08-23T22:41:09.224Z,8.10
2022-08-23T22:44:13.769Z,10.38
2022-08-23T22:47:16.751Z,8.85
2022-08-23T22:50:19.774Z,8.93
2022-08-23T22:53:23.727Z,8.60
2022-08-23T22:56:30.310Z,10.43
2022-08-23T22:59:34.683Z,10.15
2022-08-23T23:02:38.939Z,9.57
2022-08-23T23:05:43.661Z,11.90
2022-08-23T23:08:46.754Z,9.75
2022-08-23T23:11:50.054Z,12.07
2022-08-23T23:14:54.339Z,12.80
2022-08-23T23:17:59.741Z,9.15
2022-08-23T23:21:04.997Z,9.32
2022-08-23T23:24:09.311Z,9.25
2022-08-23T23:27:12.305Z,8.10
2022-08-23T23:30:16.690Z,9.13
2022-08-23T23:33:23.685Z,9.38
2022-08-23T23:36:26.810Z,7.70
2022-08-23T23:39:29.942Z,10.15
2022-08-23T23:42:33.004Z,11.20
2022-08-23T23:45:38.179Z,7.28
2022-08-23T23:48:43.534Z,11.02
2022-08-23T23:51:46.532Z,7.90
2022-08-23T23:54:49.861Z,6.85
2022-08-23T23:57:53.289Z,7.68
